RYR82V LMML-LICT
Flight info
| Callsign | RYR82V |
|---|---|
| Flight time | 0h 38m |
| Altitude | 24000 |
| Route | GZO M622 SOPIR/N0364F180 M622 MABOX M726 PIVOP |
| Aircraft | B738/M-SDE2E3FGHIRWXY/LB1 |
Departure
| Time | 2026-04-25 22:48 |
|---|---|
| Airport | Malta International Airport (LMML) |
Arrival
| Time | 2026-04-25 23:26 |
|---|---|
| Airport | Vincenzo Florio Airport Trapani-Birgi (LICT) |
| Time | Latitude | Longitude | Altitude | Speed | Heading |
|---|---|---|---|---|---|
| 2026-04-25 21:00 | 35.84765 | 14.49574 | 249 ft | 0 kts | 359° |
| 2026-04-25 22:34 | 35.84763 | 14.49574 | 249 ft | 2 kts | 360° |
| 2026-04-25 22:34 | 35.84747 | 14.49575 | 249 ft | 2 kts | 2° |
| 2026-04-25 22:34 | 35.84733 | 14.49568 | 250 ft | 2 kts | 43° |
| 2026-04-25 22:35 | 35.84725 | 14.49552 | 250 ft | 2 kts | 76° |
| 2026-04-25 22:35 | 35.84725 | 14.49534 | 250 ft | 2 kts | 110° |
| 2026-04-25 22:35 | 35.84730 | 14.49523 | 250 ft | 0 kts | 132° |
| 2026-04-25 22:35 | 35.84736 | 14.49517 | 250 ft | 0 kts | 135° |
| 2026-04-25 22:36 | 35.84736 | 14.49516 | 250 ft | 0 kts | 135° |
| 2026-04-25 22:41 | 35.84736 | 14.49517 | 251 ft | 0 kts | 135° |
| 2026-04-25 22:44 | 35.84714 | 14.49543 | 250 ft | 10 kts | 135° |
| 2026-04-25 22:44 | 35.84689 | 14.49573 | 250 ft | 0 kts | 141° |
| 2026-04-25 22:45 | 35.84633 | 14.49581 | 250 ft | 11 kts | 204° |
| 2026-04-25 22:45 | 35.84558 | 14.49544 | 251 ft | 9 kts | 135° |
| 2026-04-25 22:45 | 35.84489 | 14.49573 | 251 ft | 11 kts | 195° |
| 2026-04-25 22:45 | 35.84445 | 14.49476 | 253 ft | 25 kts | 281° |
| 2026-04-25 22:46 | 35.84484 | 14.49322 | 254 ft | 4 kts | 323° |
| 2026-04-25 22:46 | 35.84490 | 14.49314 | 255 ft | 0 kts | 310° |
| 2026-04-25 22:47 | 35.84539 | 14.49241 | 256 ft | 46 kts | 308° |
| 2026-04-25 22:47 | 35.84987 | 14.48688 | 266 ft | 131 kts | 314° |
| 2026-04-25 22:47 | 35.85747 | 14.47763 | 691 ft | 164 kts | 315° |
| 2026-04-25 22:48 | 35.86497 | 14.46836 | 1851 ft | 151 kts | 312° |
| 2026-04-25 22:48 | 35.87127 | 14.45858 | 2823 ft | 150 kts | 306° |
| 2026-04-25 22:48 | 35.87756 | 14.44783 | 3571 ft | 169 kts | 306° |
| 2026-04-25 22:48 | 35.88503 | 14.43547 | 4319 ft | 191 kts | 308° |
| 2026-04-25 22:49 | 35.89351 | 14.42248 | 5117 ft | 208 kts | 310° |
| 2026-04-25 22:49 | 35.90307 | 14.40805 | 5788 ft | 230 kts | 309° |
| 2026-04-25 22:49 | 35.91367 | 14.39178 | 6622 ft | 252 kts | 309° |
| 2026-04-25 22:49 | 35.92485 | 14.37455 | 7760 ft | 265 kts | 309° |
| 2026-04-25 22:50 | 35.93653 | 14.35669 | 8947 ft | 275 kts | 310° |
| 2026-04-25 22:50 | 35.94847 | 14.33879 | 10240 ft | 278 kts | 310° |
| 2026-04-25 22:50 | 35.96098 | 14.32017 | 11298 ft | 290 kts | 310° |
| 2026-04-25 22:50 | 35.97407 | 14.30063 | 12316 ft | 302 kts | 310° |
| 2026-04-25 22:51 | 35.98767 | 14.28027 | 13381 ft | 311 kts | 310° |
| 2026-04-25 22:51 | 36.00133 | 14.25973 | 14484 ft | 317 kts | 310° |
| 2026-04-25 22:51 | 36.01532 | 14.23870 | 15594 ft | 323 kts | 310° |
| 2026-04-25 22:51 | 36.03005 | 14.21729 | 16622 ft | 329 kts | 312° |
| 2026-04-25 22:52 | 36.04614 | 14.19726 | 17634 ft | 335 kts | 319° |
| 2026-04-25 22:52 | 36.06425 | 14.17921 | 18637 ft | 340 kts | 324° |
| 2026-04-25 22:52 | 36.08368 | 14.16231 | 19643 ft | 344 kts | 326° |
| 2026-04-25 22:52 | 36.10359 | 14.14557 | 20593 ft | 350 kts | 326° |
| 2026-04-25 22:53 | 36.12365 | 14.12849 | 21584 ft | 353 kts | 325° |
| 2026-04-25 22:53 | 36.14398 | 14.11088 | 22453 ft | 359 kts | 324° |
| 2026-04-25 22:53 | 36.16457 | 14.09282 | 23331 ft | 364 kts | 324° |
| 2026-04-25 22:53 | 36.18534 | 14.07447 | 23922 ft | 369 kts | 324° |
| 2026-04-25 22:54 | 36.20633 | 14.05587 | 24107 ft | 370 kts | 324° |
| 2026-04-25 22:54 | 36.22712 | 14.03741 | 24127 ft | 366 kts | 324° |
| 2026-04-25 22:54 | 36.24780 | 14.01904 | 24125 ft | 365 kts | 324° |
| 2026-04-25 22:54 | 36.26829 | 14.00082 | 24126 ft | 365 kts | 324° |
| 2026-04-25 22:55 | 36.28905 | 13.98235 | 24127 ft | 364 kts | 324° |
| 2026-04-25 22:55 | 36.30982 | 13.96385 | 24123 ft | 364 kts | 324° |
| 2026-04-25 22:55 | 36.33056 | 13.94536 | 24125 ft | 364 kts | 324° |
| 2026-04-25 22:55 | 36.35095 | 13.92718 | 24128 ft | 364 kts | 324° |
| 2026-04-25 22:56 | 36.37165 | 13.90870 | 24128 ft | 363 kts | 324° |
| 2026-04-25 22:56 | 36.39220 | 13.89035 | 24127 ft | 364 kts | 324° |
| 2026-04-25 22:56 | 36.41290 | 13.87185 | 24125 ft | 365 kts | 324° |
| 2026-04-25 22:56 | 36.43344 | 13.85349 | 24126 ft | 365 kts | 323° |
| 2026-04-25 22:57 | 36.45392 | 13.83517 | 24122 ft | 366 kts | 324° |
| 2026-04-25 22:57 | 36.47471 | 13.81656 | 24126 ft | 365 kts | 324° |
| 2026-04-25 22:57 | 36.49528 | 13.79813 | 24125 ft | 366 kts | 323° |
| 2026-04-25 22:57 | 36.51608 | 13.77948 | 24127 ft | 365 kts | 323° |
| 2026-04-25 22:58 | 36.53671 | 13.76098 | 24125 ft | 366 kts | 324° |
| 2026-04-25 22:58 | 36.55727 | 13.74252 | 24126 ft | 365 kts | 324° |
| 2026-04-25 22:58 | 36.57796 | 13.72394 | 24126 ft | 364 kts | 324° |
| 2026-04-25 22:58 | 36.59840 | 13.70557 | 24119 ft | 364 kts | 324° |
| 2026-04-25 22:59 | 36.61892 | 13.68711 | 24125 ft | 364 kts | 324° |
| 2026-04-25 22:59 | 36.63938 | 13.66871 | 24121 ft | 364 kts | 324° |
| 2026-04-25 22:59 | 36.66003 | 13.65010 | 24125 ft | 364 kts | 324° |
| 2026-04-25 22:59 | 36.68051 | 13.63165 | 24123 ft | 364 kts | 324° |
| 2026-04-25 23:00 | 36.70107 | 13.61311 | 24123 ft | 364 kts | 324° |
| 2026-04-25 23:00 | 36.72165 | 13.59454 | 24124 ft | 365 kts | 324° |
| 2026-04-25 23:00 | 36.74204 | 13.57612 | 24124 ft | 364 kts | 324° |
| 2026-04-25 23:00 | 36.76274 | 13.55742 | 24123 ft | 364 kts | 324° |
| 2026-04-25 23:01 | 36.78336 | 13.53878 | 24126 ft | 365 kts | 324° |
| 2026-04-25 23:01 | 36.80383 | 13.52026 | 24123 ft | 365 kts | 324° |
| 2026-04-25 23:01 | 36.82440 | 13.50164 | 24123 ft | 365 kts | 324° |
| 2026-04-25 23:01 | 36.84508 | 13.48290 | 24122 ft | 366 kts | 324° |
| 2026-04-25 23:02 | 36.86551 | 13.46437 | 24124 ft | 366 kts | 324° |
| 2026-04-25 23:02 | 36.88630 | 13.44551 | 24125 ft | 366 kts | 324° |
| 2026-04-25 23:02 | 36.90688 | 13.42682 | 24123 ft | 366 kts | 324° |
| 2026-04-25 23:02 | 36.92767 | 13.40794 | 24125 ft | 366 kts | 324° |
| 2026-04-25 23:03 | 36.94825 | 13.38923 | 24129 ft | 366 kts | 324° |
| 2026-04-25 23:03 | 36.96872 | 13.37061 | 24125 ft | 366 kts | 324° |
| 2026-04-25 23:03 | 36.98935 | 13.35183 | 24126 ft | 366 kts | 324° |
| 2026-04-25 23:03 | 37.01003 | 13.33299 | 24130 ft | 367 kts | 323° |
| 2026-04-25 23:04 | 37.03046 | 13.31436 | 24130 ft | 367 kts | 323° |
| 2026-04-25 23:04 | 37.05104 | 13.29558 | 24130 ft | 366 kts | 323° |
| 2026-04-25 23:04 | 37.07173 | 13.27670 | 24133 ft | 366 kts | 323° |
| 2026-04-25 23:04 | 37.09246 | 13.25776 | 24133 ft | 367 kts | 323° |
| 2026-04-25 23:05 | 37.11335 | 13.23867 | 24131 ft | 367 kts | 323° |
| 2026-04-25 23:05 | 37.13411 | 13.22019 | 24131 ft | 367 kts | 326° |
| 2026-04-25 23:05 | 37.15624 | 13.20414 | 24129 ft | 367 kts | 335° |
| 2026-04-25 23:05 | 37.18052 | 13.19419 | 24134 ft | 368 kts | 348° |
| 2026-04-25 23:06 | 37.20618 | 13.19076 | 24135 ft | 368 kts | 357° |
| 2026-04-25 23:06 | 37.23173 | 13.19042 | 24132 ft | 368 kts | 360° |
| 2026-04-25 23:06 | 37.25772 | 13.19080 | 24132 ft | 368 kts | 0° |
| 2026-04-25 23:06 | 37.28343 | 13.19106 | 24130 ft | 368 kts | 359° |
| 2026-04-25 23:07 | 37.30911 | 13.19106 | 24130 ft | 368 kts | 359° |
| 2026-04-25 23:07 | 37.33473 | 13.19084 | 24130 ft | 368 kts | 359° |
| 2026-04-25 23:07 | 37.36057 | 13.19049 | 24129 ft | 368 kts | 359° |
| 2026-04-25 23:07 | 37.38618 | 13.19005 | 24129 ft | 368 kts | 359° |
| 2026-04-25 23:08 | 37.41183 | 13.18958 | 24131 ft | 368 kts | 359° |
| 2026-04-25 23:08 | 37.43776 | 13.18821 | 24140 ft | 380 kts | 354° |
| 2026-04-25 23:08 | 37.46462 | 13.18230 | 24135 ft | 402 kts | 343° |
| 2026-04-25 23:08 | 37.49125 | 13.16826 | 24117 ft | 416 kts | 330° |
| 2026-04-25 23:09 | 37.51448 | 13.14715 | 23828 ft | 411 kts | 317° |
| 2026-04-25 23:09 | 37.53372 | 13.12098 | 23359 ft | 402 kts | 309° |
| 2026-04-25 23:09 | 37.55076 | 13.09320 | 22767 ft | 397 kts | 306° |
| 2026-04-25 23:09 | 37.56703 | 13.06548 | 22305 ft | 389 kts | 306° |
| 2026-04-25 23:10 | 37.58297 | 13.03843 | 21769 ft | 384 kts | 307° |
| 2026-04-25 23:10 | 37.59907 | 13.01149 | 21183 ft | 386 kts | 307° |
| 2026-04-25 23:10 | 37.61544 | 12.98444 | 20584 ft | 399 kts | 307° |
| 2026-04-25 23:10 | 37.63248 | 12.95646 | 19913 ft | 403 kts | 308° |
| 2026-04-25 23:11 | 37.64967 | 12.92833 | 19228 ft | 398 kts | 308° |
| 2026-04-25 23:11 | 37.66627 | 12.90120 | 18597 ft | 393 kts | 308° |
| 2026-04-25 23:11 | 37.68298 | 12.87387 | 17956 ft | 388 kts | 308° |
| 2026-04-25 23:11 | 37.69925 | 12.84723 | 17320 ft | 384 kts | 307° |
| 2026-04-25 23:12 | 37.71556 | 12.82050 | 16709 ft | 379 kts | 307° |
| 2026-04-25 23:12 | 37.73141 | 12.79451 | 16086 ft | 375 kts | 308° |
| 2026-04-25 23:12 | 37.74723 | 12.76855 | 15459 ft | 370 kts | 308° |
| 2026-04-25 23:12 | 37.76274 | 12.74309 | 14859 ft | 366 kts | 308° |
| 2026-04-25 23:13 | 37.77825 | 12.71761 | 14242 ft | 362 kts | 308° |
| 2026-04-25 23:13 | 37.79367 | 12.69223 | 13629 ft | 359 kts | 308° |
| 2026-04-25 23:13 | 37.80867 | 12.66756 | 13042 ft | 355 kts | 308° |
| 2026-04-25 23:13 | 37.82367 | 12.64287 | 12439 ft | 351 kts | 308° |
| 2026-04-25 23:14 | 37.83842 | 12.61857 | 11844 ft | 347 kts | 308° |
| 2026-04-25 23:14 | 37.85296 | 12.59460 | 11256 ft | 343 kts | 308° |
| 2026-04-25 23:14 | 37.86736 | 12.57082 | 10800 ft | 335 kts | 308° |
| 2026-04-25 23:14 | 37.88134 | 12.54771 | 10590 ft | 320 kts | 308° |
| 2026-04-25 23:15 | 37.89456 | 12.52585 | 10475 ft | 304 kts | 308° |
| 2026-04-25 23:15 | 37.90702 | 12.50526 | 10359 ft | 290 kts | 309° |
| 2026-04-25 23:15 | 37.92073 | 12.48616 | 10351 ft | 293 kts | 319° |
| 2026-04-25 23:15 | 37.93709 | 12.47099 | 10229 ft | 285 kts | 329° |
| 2026-04-25 23:16 | 37.95424 | 12.45850 | 9822 ft | 283 kts | 332° |
| 2026-04-25 23:16 | 37.97140 | 12.44635 | 9367 ft | 283 kts | 330° |
| 2026-04-25 23:16 | 37.98831 | 12.43365 | 8948 ft | 281 kts | 329° |
| 2026-04-25 23:16 | 38.00486 | 12.42060 | 8536 ft | 279 kts | 328° |
| 2026-04-25 23:17 | 38.02128 | 12.40737 | 8126 ft | 277 kts | 328° |
| 2026-04-25 23:17 | 38.03737 | 12.39436 | 7725 ft | 275 kts | 328° |
| 2026-04-25 23:17 | 38.05353 | 12.38133 | 7325 ft | 273 kts | 328° |
| 2026-04-25 23:17 | 38.06957 | 12.36843 | 6904 ft | 272 kts | 328° |
| 2026-04-25 23:18 | 38.08556 | 12.35559 | 6510 ft | 270 kts | 328° |
| 2026-04-25 23:18 | 38.10158 | 12.34272 | 6082 ft | 269 kts | 328° |
| 2026-04-25 23:18 | 38.11738 | 12.33003 | 5636 ft | 269 kts | 328° |
| 2026-04-25 23:18 | 38.13286 | 12.31737 | 5370 ft | 262 kts | 324° |
| 2026-04-25 23:19 | 38.14518 | 12.30037 | 5048 ft | 260 kts | 298° |
| 2026-04-25 23:19 | 38.14997 | 12.27850 | 4739 ft | 257 kts | 273° |
| 2026-04-25 23:19 | 38.14759 | 12.25623 | 4429 ft | 255 kts | 252° |
| 2026-04-25 23:19 | 38.13943 | 12.23623 | 4112 ft | 254 kts | 233° |
| 2026-04-25 23:20 | 38.12689 | 12.22070 | 3773 ft | 253 kts | 211° |
| 2026-04-25 23:20 | 38.11056 | 12.21450 | 3626 ft | 243 kts | 179° |
| 2026-04-25 23:20 | 38.09480 | 12.21965 | 3557 ft | 233 kts | 148° |
| 2026-04-25 23:20 | 38.08245 | 12.23322 | 3511 ft | 232 kts | 133° |
| 2026-04-25 23:21 | 38.07093 | 12.24803 | 3316 ft | 234 kts | 136° |
| 2026-04-25 23:21 | 38.05902 | 12.26157 | 3058 ft | 232 kts | 137° |
| 2026-04-25 23:21 | 38.04711 | 12.27553 | 2803 ft | 230 kts | 134° |
| 2026-04-25 23:21 | 38.03598 | 12.29001 | 2554 ft | 227 kts | 131° |
| 2026-04-25 23:22 | 38.02549 | 12.30471 | 2296 ft | 220 kts | 130° |
| 2026-04-25 23:22 | 38.01585 | 12.31895 | 2060 ft | 203 kts | 128° |
| 2026-04-25 23:22 | 38.00712 | 12.33236 | 1883 ft | 187 kts | 127° |
| 2026-04-25 23:23 | 37.99229 | 12.35582 | 1877 ft | 155 kts | 126° |
| 2026-04-25 23:23 | 37.98601 | 12.36590 | 1897 ft | 134 kts | 126° |
| 2026-04-25 23:23 | 37.98033 | 12.37507 | 1927 ft | 125 kts | 126° |
| 2026-04-25 23:23 | 37.97487 | 12.38390 | 1891 ft | 128 kts | 126° |
| 2026-04-25 23:24 | 37.96944 | 12.39272 | 1751 ft | 126 kts | 126° |
| 2026-04-25 23:24 | 37.96410 | 12.40155 | 1548 ft | 128 kts | 126° |
| 2026-04-25 23:24 | 37.95871 | 12.41057 | 1254 ft | 126 kts | 124° |
| 2026-04-25 23:24 | 37.95341 | 12.41932 | 935 ft | 124 kts | 127° |
| 2026-04-25 23:25 | 37.94816 | 12.42773 | 769 ft | 121 kts | 127° |
| 2026-04-25 23:25 | 37.94302 | 12.43623 | 739 ft | 122 kts | 126° |
| 2026-04-25 23:25 | 37.93767 | 12.44488 | 659 ft | 125 kts | 126° |
| 2026-04-25 23:25 | 37.93234 | 12.45376 | 349 ft | 125 kts | 126° |
| 2026-04-25 23:26 | 37.92707 | 12.46225 | 266 ft | 120 kts | 127° |
| 2026-04-25 23:26 | 37.92201 | 12.47063 | 112 ft | 119 kts | 127° |
| 2026-04-25 23:26 | 37.91697 | 12.47874 | 25 ft | 111 kts | 128° |
| 2026-04-25 23:26 | 37.91363 | 12.48438 | 26 ft | 48 kts | 127° |
| 2026-04-25 23:27 | 37.91179 | 12.48742 | 26 ft | 41 kts | 128° |
| 2026-04-25 23:27 | 37.91014 | 12.49020 | 29 ft | 38 kts | 126° |
| 2026-04-25 23:27 | 37.90847 | 12.49273 | 31 ft | 36 kts | 133° |
| 2026-04-25 23:27 | 37.90657 | 12.49450 | 32 ft | 30 kts | 156° |
| 2026-04-25 23:28 | 37.90492 | 12.49540 | 35 ft | 16 kts | 156° |
| 2026-04-25 23:28 | 37.90401 | 12.49542 | 36 ft | 6 kts | 146° |
| 2026-04-25 23:28 | 37.90379 | 12.49555 | 36 ft | 4 kts | 195° |
| 2026-04-25 23:28 | 37.90363 | 12.49525 | 36 ft | 5 kts | 251° |
| 2026-04-25 23:29 | 37.90359 | 12.49502 | 36 ft | 0 kts | 256° |
| 2026-04-25 23:31 | 37.91651 | 12.47945 | 25 ft | 0 kts | 256° |
| 2026-04-25 23:32 | 37.90359 | 12.49502 | 36 ft | 0 kts | 256° |